Time;durP1;ratioP1;P1;durP2;ratioP2;P2;SDS_P1;SDS_P2;PMS_P1;PMS_P2;Temp;Humidity;BMP_temperature;BMP_pressure;BME280_temperature;BME280_humidity;BME280_pressure;Samples;Min_cycle;Max_cycle;Signal;HPM_P1;HPM_P2
2023/08/25 00:01:27;;;;;;;4.20;2.40;;;;;;;14.34;72.45;98964.97;105514;1259;61500;-22
2023/08/25 00:03:55;;;;;;;7.70;2.60;;;;;;;14.10;73.50;98964.48;105394;1259;62527;-23
2023/08/25 00:06:23;;;;;;;4.20;2.50;;;;;;;13.88;74.20;98959.54;105623;1257;75728;-23
2023/08/25 00:08:51;;;;;;;2.10;1.60;;;;;;;13.70;74.45;98956.80;105343;1259;76553;-22
2023/08/25 00:11:19;;;;;;;2.80;2.20;;;;;;;14.06;75.16;98958.31;105485;1254;76025;-22
2023/08/25 00:13:47;;;;;;;3.30;1.90;;;;;;;14.52;73.79;98957.05;105402;1257;63812;-23
2023/08/25 00:16:15;;;;;;;3.00;2.10;;;;;;;14.56;72.43;98953.19;105515;1257;63854;-22
2023/08/25 00:18:45;;;;;;;3.40;2.30;;;;;;;14.41;73.10;98951.23;105777;1254;76504;-23
2023/08/25 00:21:15;;;;;;;3.40;2.30;;;;;;;14.15;72.93;98951.09;105543;1254;74317;-23
2023/08/25 00:23:43;;;;;;;5.80;2.50;;;;;;;13.85;73.48;98953.70;105358;1254;71491;-23
2023/08/25 00:26:11;;;;;;;3.80;2.60;;;;;;;13.51;74.06;98955.80;105498;1254;61153;-23
2023/08/25 00:28:39;;;;;;;3.10;2.00;;;;;;;13.18;74.51;98950.48;105683;1252;61155;-22
2023/08/25 00:31:07;;;;;;;5.70;2.60;;;;;;;12.94;75.49;98945.09;105605;1256;72633;-23
2023/08/25 00:33:35;;;;;;;7.10;2.70;;;;;;;13.34;76.67;98939.80;105631;1254;76775;-23
2023/08/25 00:36:04;;;;;;;7.00;3.60;;;;;;;13.90;75.68;98940.44;105579;1253;75834;-23
2023/08/25 00:38:31;;;;;;;5.90;3.30;;;;;;;14.02;75.15;98942.06;105558;1255;61150;-22
2023/08/25 00:41:00;;;;;;;7.30;4.30;;;;;;;13.92;74.82;98943.38;105487;1254;62721;-22
2023/08/25 00:43:28;;;;;;;8.10;4.10;;;;;;;13.76;75.67;98945.24;105460;1256;75615;-23
2023/08/25 00:45:55;;;;;;;8.10;4.30;;;;;;;13.60;75.88;98938.94;105362;1255;76115;-22
2023/08/25 00:48:23;;;;;;;9.70;5.20;;;;;;;13.46;76.62;98938.33;105347;1257;76676;-22
2023/08/25 00:50:51;;;;;;;4.70;2.90;;;;;;;13.40;76.72;98935.42;105342;1259;63458;-22
2023/08/25 00:53:20;;;;;;;4.00;2.30;;;;;;;13.92;76.04;98931.52;105519;1257;62464;-23
2023/08/25 00:55:48;;;;;;;4.60;2.70;;;;;;;14.48;74.24;98926.25;105365;1254;76375;-23
2023/08/25 00:58:16;;;;;;;5.00;3.40;;;;;;;14.52;73.44;98925.55;105699;1254;78234;-23
2023/08/25 01:00:45;;;;;;;6.00;4.00;;;;;;;14.32;73.59;98921.18;105707;1257;74931;-23
2023/08/25 01:03:13;;;;;;;6.80;4.30;;;;;;;14.08;74.10;98922.30;105497;1257;61243;-22
2023/08/25 01:05:41;;;;;;;6.10;3.70;;;;;;;13.86;74.13;98922.34;105365;1259;63870;-22
2023/08/25 01:08:09;;;;;;;7.40;4.00;;;;;;;13.63;74.65;98918.62;105387;1256;76734;-22
2023/08/25 01:10:55;;;;;;;5.50;3.10;;;;;;;13.45;75.17;98917.55;105518;1258;75720;-23
2023/08/25 01:13:56;;;;;;;5.20;2.70;;;;;;;13.91;75.01;98915.55;105154;1255;71523;-22
2023/08/25 01:16:28;;;;;;;4.70;2.70;;;;;;;14.40;73.62;98915.64;105426;1254;61099;-22
2023/08/25 01:18:56;;;;;;;6.80;3.10;;;;;;;14.31;73.27;98915.88;105301;1260;62266;-23
2023/08/25 01:21:25;;;;;;;4.80;3.30;;;;;;;14.06;73.19;98916.19;105348;1259;77705;-23
2023/08/25 01:23:58;;;;;;;6.10;3.40;;;;;;;13.79;73.95;98914.11;105546;1260;75790;-22
2023/08/25 01:26:25;;;;;;;6.20;3.80;;;;;;;13.51;74.74;98917.62;105418;1262;73904;-22
2023/08/25 01:28:53;;;;;;;5.90;3.60;;;;;;;13.23;74.86;98917.27;105458;1262;61068;-22
2023/08/25 01:31:21;;;;;;;3.70;2.70;;;;;;;13.00;75.12;98911.58;105438;1252;63841;-23
2023/08/25 01:33:49;;;;;;;4.10;2.70;;;;;;;13.38;76.08;98911.51;105177;1254;76549;-23
2023/08/25 01:36:39;;;;;;;4.40;3.20;;;;;;;13.91;74.92;98907.71;105189;1254;75735;-22
2023/08/25 01:39:12;;;;;;;6.60;3.40;;;;;;;13.97;73.90;98906.41;105257;1260;74013;-23
2023/08/25 01:41:49;;;;;;;7.20;4.40;;;;;;;13.76;73.78;98905.83;103138;1254;2764839;-22
2023/08/25 01:44:18;;;;;;;6.50;3.40;;;;;;;13.46;73.82;98901.67;105639;1252;61218;-23
2023/08/25 01:46:48;;;;;;;14.60;4.30;;;;;;;13.21;74.41;98904.58;105660;1260;75221;-22
2023/08/25 01:49:16;;;;;;;6.20;4.30;;;;;;;12.99;75.28;98901.21;105697;1254;76772;-22
2023/08/25 01:51:44;;;;;;;5.40;3.10;;;;;;;12.84;76.44;98901.11;105590;1257;72730;-23
2023/08/25 01:54:15;;;;;;;6.00;3.70;;;;;;;13.24;77.03;98899.78;105367;1253;62531;-23
2023/08/25 01:56:43;;;;;;;9.00;4.00;;;;;;;13.77;75.52;98898.95;105517;1257;62483;-23
2023/08/25 01:59:11;;;;;;;8.30;3.90;;;;;;;13.79;75.08;98898.05;105582;1259;75196;-23
2023/08/25 02:01:39;;;;;;;5.80;4.10;;;;;;;13.60;74.67;98896.74;105564;1256;76565;-23
2023/08/25 02:04:07;;;;;;;7.80;3.60;;;;;;;13.36;73.95;98897.23;105469;1254;71698;-22
2023/08/25 02:06:36;;;;;;;8.30;4.40;;;;;;;13.04;74.51;98900.23;105697;1254;61512;-23
2023/08/25 02:09:05;;;;;;;8.40;5.20;;;;;;;12.74;76.32;98900.37;105692;1254;61451;-22
2023/08/25 02:11:33;;;;;;;6.90;4.00;;;;;;;12.54;77.83;98899.94;105696;1254;76474;-22
2023/08/25 02:14:00;;;;;;;10.40;4.50;;;;;;;12.96;78.49;98903.81;105766;1254;75720;-22
2023/08/25 02:16:28;;;;;;;9.90;4.30;;;;;;;13.50;77.59;98898.93;105654;1259;75107;-22
2023/08/25 02:18:56;;;;;;;9.40;5.30;;;;;;;13.59;76.74;98898.41;105713;1254;61970;-22
2023/08/25 02:21:24;;;;;;;9.50;4.70;;;;;;;13.45;76.30;98898.33;105449;1253;62813;-23
2023/08/25 02:23:55;;;;;;;9.70;5.20;;;;;;;13.28;75.97;98897.30;105529;1257;77500;-22
2023/08/25 02:26:23;;;;;;;9.60;5.60;;;;;;;13.10;76.16;98898.69;105336;1254;74385;-22
2023/08/25 02:28:50;;;;;;;11.30;5.70;;;;;;;12.91;76.49;98900.97;105524;1257;72730;-22
2023/08/25 02:31:18;;;;;;;8.40;4.10;;;;;;;12.75;76.70;98899.99;105345;1254;61081;-22
2023/08/25 02:33:46;;;;;;;5.60;3.60;;;;;;;13.18;76.47;98898.45;105404;1254;61150;-23
2023/08/25 02:36:14;;;;;;;10.30;4.60;;;;;;;13.73;75.09;98898.14;105688;1259;77622;-23
2023/08/25 02:38:42;;;;;;;9.20;4.50;;;;;;;13.79;74.09;98900.16;105669;1259;77711;-23
2023/08/25 02:41:12;;;;;;;9.20;5.20;;;;;;;13.58;74.06;98900.81;105583;1254;74095;-22
2023/08/25 02:43:40;;;;;;;8.80;4.80;;;;;;;13.32;74.57;98904.25;105482;1254;61498;-22
2023/08/25 02:46:08;;;;;;;9.90;5.40;;;;;;;13.01;74.80;98909.73;105497;1254;61617;-22
2023/08/25 02:48:36;;;;;;;8.70;5.10;;;;;;;12.71;76.25;98910.81;105461;1254;76312;-22
2023/08/25 02:51:04;;;;;;;6.10;3.80;;;;;;;12.45;77.15;98917.33;105629;1257;76808;-22
2023/08/25 02:53:32;;;;;;;7.20;3.60;;;;;;;12.76;77.24;98918.31;105634;1254;72862;-23
2023/08/25 02:56:00;;;;;;;6.80;3.80;;;;;;;13.18;75.84;98918.63;105587;1257;61234;-22
2023/08/25 02:58:29;;;;;;;10.40;4.60;;;;;;;13.15;75.70;98923.93;105503;1254;61106;-22
2023/08/25 03:00:58;;;;;;;11.20;5.10;;;;;;;12.97;76.18;98929.50;105618;1260;75255;-22
2023/08/25 03:03:28;;;;;;;12.10;5.80;;;;;;;12.77;77.18;98930.77;105675;1254;76832;-23
2023/08/25 03:06:00;;;;;;;8.80;5.00;;;;;;;12.58;77.93;98937.43;105544;1254;71476;-22
2023/08/25 03:08:27;;;;;;;8.40;5.80;;;;;;;12.36;78.17;98938.48;105553;1259;61942;-22
2023/08/25 03:10:55;;;;;;;6.30;3.30;;;;;;;12.18;78.72;98938.75;105319;1254;61093;-22
2023/08/25 03:13:23;;;;;;;4.70;3.00;;;;;;;12.59;78.32;98940.09;105526;1254;77730;-23
2023/08/25 03:15:55;;;;;;;6.40;3.80;;;;;;;13.07;76.17;98941.08;105610;1254;76795;-23
2023/08/25 03:18:23;;;;;;;5.60;3.70;;;;;;;13.12;75.45;98941.91;105622;1254;73784;-22
2023/08/25 03:20:52;;;;;;;5.40;3.70;;;;;;;12.96;75.49;98945.05;105415;1254;63903;-22
2023/08/25 03:23:20;;;;;;;8.40;4.10;;;;;;;12.73;75.59;98945.80;105722;1254;61150;-22
2023/08/25 03:25:49;;;;;;;8.70;4.80;;;;;;;12.50;75.99;98949.10;105380;1259;76338;-22
2023/08/25 03:28:17;;;;;;;7.20;4.20;;;;;;;12.29;77.07;98947.84;105401;1259;75228;-22
2023/08/25 03:30:50;;;;;;;6.50;3.40;;;;;;;12.18;77.58;98946.68;105520;1254;74085;-23
2023/08/25 03:33:17;;;;;;;8.10;3.80;;;;;;;12.71;78.04;98947.08;105281;1256;62543;-22
2023/08/25 03:35:45;;;;;;;7.40;3.90;;;;;;;13.29;76.66;98941.17;105191;1253;64331;-22
2023/08/25 03:38:13;;;;;;;5.50;3.80;;;;;;;13.35;75.12;98943.56;105440;1254;76670;-22
2023/08/25 03:40:43;;;;;;;4.90;3.80;;;;;;;13.15;74.74;98948.91;105184;1253;76769;-22
2023/08/25 03:43:11;;;;;;;6.40;4.20;;;;;;;12.98;74.75;98948.24;105660;1254;72739;-22
2023/08/25 03:45:38;;;;;;;8.50;4.60;;;;;;;12.85;75.07;98950.64;105413;1258;61047;-22
2023/08/25 03:48:06;;;;;;;5.50;3.90;;;;;;;12.71;75.46;98958.16;105436;1259;63863;-22
2023/08/25 03:50:34;;;;;;;5.80;2.80;;;;;;;12.61;75.94;98961.48;105591;1253;77847;-22
2023/08/25 03:53:02;;;;;;;7.50;4.30;;;;;;;13.13;76.34;98959.33;105546;1261;75839;-23
2023/08/25 03:55:30;;;;;;;6.00;4.20;;;;;;;13.85;74.75;98960.61;105178;1256;76659;-22
2023/08/25 03:57:58;;;;;;;6.10;4.00;;;;;;;14.12;73.36;98962.40;105253;1256;62976;-22
2023/08/25 04:00:26;;;;;;;7.80;5.10;;;;;;;14.12;72.42;98960.47;105448;1253;61228;-22
2023/08/25 04:02:54;;;;;;;6.10;4.10;;;;;;;14.05;72.05;98959.08;105411;1253;73952;-23
2023/08/25 04:05:22;;;;;;;8.40;4.70;;;;;;;13.95;72.34;98962.15;105508;1254;73275;-22
2023/08/25 04:07:50;;;;;;;10.40;4.60;;;;;;;13.84;72.54;98968.45;105541;1259;71790;-22
2023/08/25 04:10:18;;;;;;;6.80;4.60;;;;;;;13.73;72.75;98972.21;105643;1260;62551;-22
2023/08/25 04:12:48;;;;;;;10.70;4.50;;;;;;;13.65;73.21;98975.33;105681;1254;61454;-23
2023/08/25 04:15:16;;;;;;;6.50;3.80;;;;;;;14.19;73.12;98979.54;105586;1259;77541;-22
2023/08/25 04:17:45;;;;;;;7.90;4.00;;;;;;;14.85;71.34;98979.94;105470;1255;77310;-22
2023/08/25 04:20:14;;;;;;;6.20;4.10;;;;;;;15.01;70.46;98979.96;105264;1253;73877;-23
2023/08/25 04:22:42;;;;;;;9.10;4.30;;;;;;;14.99;70.14;98976.55;105478;1258;62833;-23
2023/08/25 04:25:10;;;;;;;8.20;4.30;;;;;;;14.90;70.07;98976.42;105422;1253;61154;-23
2023/08/25 04:27:39;;;;;;;7.10;4.20;;;;;;;14.75;70.36;98976.50;105538;1259;76898;-23
2023/08/25 04:30:08;;;;;;;7.90;4.30;;;;;;;14.63;70.93;98973.46;105372;1259;74415;-23
2023/08/25 04:32:37;;;;;;;7.50;3.90;;;;;;;14.59;71.44;98971.58;105409;1254;75876;-23
2023/08/25 04:35:07;;;;;;;4.90;3.10;;;;;;;14.61;71.72;98965.27;105755;1253;62396;-23
2023/08/25 04:37:36;;;;;;;8.20;3.90;;;;;;;15.34;71.67;98968.63;105649;1254;61968;-23
2023/08/25 04:40:05;;;;;;;6.90;4.50;;;;;;;16.25;68.87;98969.85;105602;1254;76290;-23
2023/08/25 04:42:33;;;;;;;10.20;5.10;;;;;;;16.67;67.19;98962.89;105213;1254;76455;-23
2023/08/25 04:45:04;;;;;;;10.20;5.50;;;;;;;16.83;67.07;98960.56;105633;1257;74977;-23
2023/08/25 04:47:33;;;;;;;11.30;5.80;;;;;;;16.94;67.47;98959.04;105507;1260;61539;-23
2023/08/25 04:50:03;;;;;;;13.60;7.30;;;;;;;17.11;67.04;98960.59;105532;1255;62512;-23
2023/08/25 04:52:31;;;;;;;11.30;6.90;;;;;;;17.28;66.54;98959.46;105366;1260;76094;-23
2023/08/25 04:54:59;;;;;;;12.90;7.60;;;;;;;17.43;65.90;98970.58;105714;1254;74899;-23
2023/08/25 05:05:16;;;;;;;20.50;7.20;;;;;;;18.11;65.44;98951.57;102625;1296;599531;-23
2023/08/25 05:07:45;;;;;;;13.40;7.00;;;;;;;18.24;65.77;98954.44;104842;1267;61242;-22
2023/08/25 05:10:13;;;;;;;11.60;6.60;;;;;;;18.46;65.37;98959.14;104853;1268;61142;-23
2023/08/25 05:12:44;;;;;;;10.40;6.50;;;;;;;18.70;64.64;98957.59;105026;1271;74027;-23
2023/08/25 05:15:12;;;;;;;11.10;6.10;;;;;;;18.96;63.43;98960.96;104822;1270;75562;-23
2023/08/25 05:17:41;;;;;;;10.70;6.00;;;;;;;19.17;62.34;98956.27;103357;1273;3064069;-24
2023/08/25 05:20:11;;;;;;;10.80;5.70;;;;;;;19.29;62.74;98959.58;104903;1267;61529;-23
2023/08/25 05:22:39;;;;;;;11.30;5.50;;;;;;;19.32;61.87;98954.59;104898;1269;61193;-23
2023/08/25 05:25:08;;;;;;;12.90;5.10;;;;;;;19.33;61.43;98954.28;105213;1267;73226;-23
2023/08/25 05:27:37;;;;;;;6.80;4.90;;;;;;;19.37;60.82;98954.07;105160;1263;74453;-23
2023/08/25 05:30:06;;;;;;;10.50;6.70;;;;;;;19.46;60.82;98950.69;105134;1264;72739;-23
2023/08/25 05:32:34;;;;;;;13.00;7.20;;;;;;;19.49;60.94;98948.33;105101;1267;61185;-23
2023/08/25 05:35:20;;;;;;;12.40;8.10;;;;;;;19.53;62.17;98944.18;105217;1266;61055;-23
2023/08/25 05:37:49;;;;;;;15.50;9.10;;;;;;;19.55;62.36;98941.88;105177;1264;72052;-23
2023/08/25 05:40:17;;;;;;;15.00;9.30;;;;;;;19.57;61.99;98939.47;105181;1267;74519;-23
2023/08/25 05:42:47;;;;;;;15.60;9.70;;;;;;;19.62;61.70;98931.77;105201;1266;74850;-23
2023/08/25 05:52:53;;;;;;;22.80;9.30;;;;;;;19.83;60.82;98916.27;102619;1292;600263;-22
2023/08/25 05:56:29;;;;;;;17.30;9.30;;;;;;;19.87;60.31;98921.02;102601;1295;600522;-21
2023/08/25 05:59:00;;;;;;;11.70;7.20;;;;;;;19.92;60.63;98926.34;104910;1267;62526;-21
2023/08/25 06:01:28;;;;;;;12.50;7.30;;;;;;;19.85;60.17;98928.92;104853;1267;61071;-21
2023/08/25 06:03:59;;;;;;;12.80;7.50;;;;;;;19.78;60.79;98929.58;104728;1273;72317;-21
2023/08/25 06:06:27;;;;;;;10.80;6.20;;;;;;;19.87;60.61;98931.45;105123;1269;74456;-22
2023/08/25 06:08:56;;;;;;;16.50;7.10;;;;;;;19.96;60.64;98929.81;103354;1268;2887605;-22
2023/08/25 06:11:24;;;;;;;14.10;6.70;;;;;;;20.03;60.15;98932.36;105258;1265;62531;-21
2023/08/25 06:13:52;;;;;;;13.70;6.80;;;;;;;20.09;60.38;98932.37;105307;1266;61179;-21
2023/08/25 06:16:21;;;;;;;13.40;6.60;;;;;;;20.11;60.25;98924.01;105175;1269;72265;-21
2023/08/25 06:18:49;;;;;;;13.20;6.50;;;;;;;20.10;60.13;98925.22;105227;1267;75815;-22
2023/08/25 06:21:17;;;;;;;15.30;6.30;;;;;;;20.00;59.40;98932.45;105074;1269;75433;-22
2023/08/25 06:23:44;;;;;;;12.40;6.10;;;;;;;20.05;59.71;98925.91;105188;1267;61946;-21
2023/08/25 06:26:13;;;;;;;10.70;5.70;;;;;;;20.18;59.27;98924.19;105234;1264;61134;-21
2023/08/25 06:28:41;;;;;;;9.00;5.60;;;;;;;20.29;59.10;98922.86;105220;1266;75526;-21
2023/08/25 06:31:08;;;;;;;10.50;4.90;;;;;;;20.38;58.15;98928.01;105203;1266;74501;-22
2023/08/25 06:33:38;;;;;;;9.00;4.60;;;;;;;20.54;57.54;98926.48;105152;1264;74768;-22
2023/08/25 06:36:06;;;;;;;7.60;4.60;;;;;;;20.73;57.21;98927.77;105211;1267;62749;-21
2023/08/25 06:38:34;;;;;;;8.50;4.80;;;;;;;20.91;56.98;98932.41;105673;1255;61025;-21
2023/08/25 06:41:24;;;;;;;5.40;3.50;;;;;;;21.14;56.57;98931.09;105524;1260;73695;-21
2023/08/25 06:43:53;;;;;;;5.30;3.40;;;;;;;21.27;54.63;98934.36;105520;1254;76908;-22
2023/08/25 06:46:34;;;;;;;7.30;3.60;;;;;;;21.39;53.52;98930.73;105248;1264;74539;-22
2023/08/25 06:49:03;;;;;;;11.00;3.60;;;;;;;21.61;53.42;98929.48;105298;1267;62877;-21
2023/08/25 06:51:30;;;;;;;5.00;2.90;;;;;;;21.87;52.80;98928.43;105261;1263;61335;-21
2023/08/25 06:54:01;;;;;;;6.70;3.40;;;;;;;22.08;52.40;98933.72;105299;1266;71921;-22
2023/08/25 06:56:33;;;;;;;5.00;2.40;;;;;;;22.36;51.19;98927.57;105262;1265;73093;-22
2023/08/25 06:59:02;;;;;;;2.80;2.30;;;;;;;22.60;50.50;98930.50;105243;1260;74153;-22
2023/08/25 07:01:30;;;;;;;4.60;2.60;;;;;;;22.84;49.96;98935.19;105285;1260;62521;-21
2023/08/25 07:03:59;;;;;;;3.90;2.40;;;;;;;23.05;48.36;98937.29;105272;1261;61808;-21
2023/08/25 07:06:27;;;;;;;6.60;2.40;;;;;;;23.09;48.34;98935.72;105303;1263;76980;-21
2023/08/25 07:08:55;;;;;;;5.00;2.40;;;;;;;23.13;48.63;98940.77;105214;1263;74451;-22
2023/08/25 07:11:26;;;;;;;4.20;2.40;;;;;;;23.21;47.46;98938.42;105193;1264;74127;-22
2023/08/25 07:13:54;;;;;;;3.20;2.40;;;;;;;23.28;46.45;98939.80;105256;1263;62568;-22
2023/08/25 07:16:22;;;;;;;5.50;2.00;;;;;;;23.37;46.77;98939.20;105294;1263;61382;-21
2023/08/25 07:18:50;;;;;;;4.70;2.90;;;;;;;23.39;46.63;98938.62;105233;1260;73057;-21
2023/08/25 07:21:18;;;;;;;4.00;1.90;;;;;;;23.49;46.71;98941.58;105157;1264;75877;-22
2023/08/25 07:23:46;;;;;;;3.90;1.80;;;;;;;23.49;45.31;98939.82;105208;1260;72712;-21
2023/08/25 07:26:14;;;;;;;7.20;2.40;;;;;;;23.58;45.99;98940.45;105639;1259;61148;-21
2023/08/25 07:28:42;;;;;;;4.90;2.00;;;;;;;23.68;45.02;98936.70;105655;1254;61160;-21
2023/08/25 07:31:09;;;;;;;6.10;2.10;;;;;;;23.80;45.34;98932.79;105614;1259;73050;-21
2023/08/25 07:33:37;;;;;;;3.10;2.00;;;;;;;23.90;44.38;98925.64;105630;1260;74519;-22
2023/08/25 07:36:05;;;;;;;2.90;1.80;;;;;;;24.10;44.57;98925.60;105414;1254;73605;-21
2023/08/25 07:46:33;;;;;;;2.60;1.50;;;;;;;24.84;40.91;98910.56;103071;1289;614279;-21
2023/08/25 07:49:01;;;;;;;4.30;1.70;;;;;;;25.06;40.23;98912.73;104878;1266;62003;-23
2023/08/25 07:51:29;;;;;;;2.10;1.60;;;;;;;25.17;37.70;98911.66;104882;1269;61901;-23
2023/08/25 07:54:07;;;;;;;2.00;1.60;;;;;;;25.30;38.23;98909.92;105024;1269;73586;-24
2023/08/25 07:56:35;;;;;;;4.90;1.90;;;;;;;25.63;38.37;98905.95;104874;1270;75797;-23
2023/08/25 07:59:03;;;;;;;3.90;1.40;;;;;;;25.92;37.15;98903.09;102764;1264;2920909;-23
2023/08/25 08:01:31;;;;;;;3.10;1.60;;;;;;;25.95;36.95;98901.02;105239;1266;61140;-24
2023/08/25 08:03:59;;;;;;;6.90;2.20;;;;;;;26.02;37.14;98899.08;105190;1267;61759;-24
2023/08/25 08:06:27;;;;;;;3.20;1.40;;;;;;;26.18;36.67;98895.27;105146;1264;73620;-24
2023/08/25 08:08:54;;;;;;;3.40;1.80;;;;;;;26.35;36.59;98895.27;104971;1269;74450;-24
2023/08/25 08:11:22;;;;;;;4.70;1.80;;;;;;;26.59;36.53;98896.38;105126;1264;73063;-22
2023/08/25 08:13:49;;;;;;;3.80;1.60;;;;;;;26.72;35.39;98888.25;105058;1264;61078;-21
2023/08/25 08:16:17;;;;;;;2.30;1.80;;;;;;;26.77;35.61;98888.79;105099;1264;61316;-23
2023/08/25 08:18:45;;;;;;;2.70;1.80;;;;;;;26.99;35.82;98885.13;105150;1268;74499;-24
2023/08/25 08:21:13;;;;;;;3.40;1.90;;;;;;;27.28;36.08;98878.14;104879;1264;75884;-24
2023/08/25 08:23:40;;;;;;;3.60;1.60;;;;;;;27.71;35.94;98877.95;105152;1265;73793;-23
2023/08/25 08:26:09;;;;;;;2.20;1.30;;;;;;;27.96;33.63;98874.08;104845;1264;61975;-22
2023/08/25 08:28:36;;;;;;;1.80;1.10;;;;;;;27.94;32.48;98876.66;105124;1267;61730;-22
2023/08/25 08:31:05;;;;;;;4.30;1.30;;;;;;;27.91;32.27;98881.70;105208;1264;74503;-22
2023/08/25 08:33:32;;;;;;;2.30;1.30;;;;;;;28.00;31.66;98889.13;105196;1263;74221;-21
2023/08/25 08:36:00;;;;;;;2.20;1.30;;;;;;;27.91;32.25;98888.39;105174;1261;72977;-23
2023/08/25 08:38:27;;;;;;;2.90;1.60;;;;;;;27.97;33.47;98892.92;105202;1260;61290;-24
2023/08/25 08:41:01;;;;;;;2.40;1.40;;;;;;;28.22;33.39;98895.99;105202;1261;62061;-24
2023/08/25 08:43:32;;;;;;;2.30;1.50;;;;;;;28.45;32.42;98893.71;105093;1269;74437;-24
2023/08/25 08:46:00;;;;;;;4.40;1.80;;;;;;;28.66;31.82;98888.52;104824;1267;74833;-23
2023/08/25 08:48:27;;;;;;;3.70;1.80;;;;;;;28.70;31.19;98886.74;104879;1270;74302;-23
2023/08/25 08:50:56;;;;;;;7.10;1.80;;;;;;;28.76;30.93;98887.25;104874;1270;61904;-24
2023/08/25 08:53:24;;;;;;;3.50;2.00;;;;;;;28.88;31.21;98891.06;105065;1271;61647;-23
2023/08/25 08:55:52;;;;;;;2.90;1.60;;;;;;;28.85;30.44;98895.91;104841;1267;72883;-21
2023/08/25 08:58:20;;;;;;;3.10;1.30;;;;;;;28.87;30.67;98896.91;104824;1267;76008;-23
2023/08/25 09:00:47;;;;;;;3.40;1.70;;;;;;;28.91;31.10;98896.15;104939;1267;74594;-23
2023/08/25 09:03:18;;;;;;;2.90;2.00;;;;;;;29.08;31.71;98895.89;104808;1266;61119;-22
2023/08/25 09:05:45;;;;;;;3.80;1.80;;;;;;;29.37;31.32;98895.04;104730;1272;61806;-23
2023/08/25 09:08:12;;;;;;;2.90;1.80;;;;;;;29.49;30.57;98896.89;104775;1266;72781;-22
2023/08/25 09:10:40;;;;;;;4.80;2.00;;;;;;;29.07;30.33;98898.35;104750;1267;75511;-23
2023/08/25 09:13:07;;;;;;;4.00;1.90;;;;;;;28.92;30.46;98900.11;104651;1271;73972;-22
2023/08/25 09:15:35;;;;;;;3.20;1.90;;;;;;;28.74;30.06;98897.64;104796;1267;62055;-22
2023/08/25 09:18:07;;;;;;;2.10;1.30;;;;;;;28.53;31.33;98893.66;104765;1269;61789;-23
2023/08/25 09:20:38;;;;;;;3.00;2.00;;;;;;;28.33;30.88;98894.50;104838;1270;73735;-23
2023/08/25 09:23:06;;;;;;;2.10;1.50;;;;;;;28.26;30.95;98891.45;105141;1264;74436;-23
2023/08/25 09:25:34;;;;;;;4.30;1.70;;;;;;;28.26;30.60;98886.75;105219;1267;74156;-22
2023/08/25 09:28:03;;;;;;;3.90;1.60;;;;;;;28.32;30.26;98888.27;105224;1264;61186;-22
2023/08/25 09:30:41;;;;;;;8.00;1.70;;;;;;;28.09;30.86;98885.55;105120;1264;61202;-22
2023/08/25 09:33:15;;;;;;;3.50;1.80;;;;;;;27.75;31.67;98887.11;105104;1269;74288;-22
2023/08/25 09:35:42;;;;;;;2.60;1.60;;;;;;;27.56;32.25;98890.00;104996;1266;72620;-22
2023/08/25 09:38:22;;;;;;;8.10;1.80;;;;;;;27.16;32.66;98890.70;105192;1261;72571;-22
2023/08/25 09:40:49;;;;;;;6.00;1.60;;;;;;;27.44;32.18;98892.45;105116;1261;61113;-22
2023/08/25 09:43:17;;;;;;;3.60;1.70;;;;;;;27.18;32.22;98890.27;105183;1264;61695;-22
2023/08/25 09:45:44;;;;;;;4.00;1.80;;;;;;;27.53;32.65;98888.13;105055;1264;74321;-22
2023/08/25 09:48:13;;;;;;;5.80;1.70;;;;;;;27.92;32.18;98879.30;105216;1261;74453;-22
2023/08/25 09:50:42;;;;;;;3.20;1.80;;;;;;;28.21;31.54;98878.86;105009;1268;73499;-23
2023/08/25 09:53:12;;;;;;;6.20;1.40;;;;;;;28.03;31.32;98874.34;104996;1268;61185;-22
2023/08/25 09:55:39;;;;;;;4.70;1.70;;;;;;;27.89;31.91;98870.38;105068;1263;61436;-22
2023/08/25 09:58:08;;;;;;;3.30;1.90;;;;;;;27.72;31.90;98869.36;105238;1264;73070;-22
2023/08/25 10:00:39;;;;;;;4.80;1.70;;;;;;;27.73;32.13;98865.85;105196;1267;75984;-23
2023/08/25 10:03:11;;;;;;;4.00;1.70;;;;;;;27.93;32.04;98866.75;105165;1262;73913;-22
2023/08/25 10:05:38;;;;;;;4.00;1.80;;;;;;;27.58;31.42;98870.95;105118;1261;61337;-22
2023/08/25 10:08:09;;;;;;;3.90;1.90;;;;;;;27.25;31.94;98870.08;105248;1264;61567;-22
2023/08/25 10:10:38;;;;;;;2.90;1.40;;;;;;;27.40;32.06;98865.27;104945;1260;74295;-23
2023/08/25 10:13:07;;;;;;;2.60;1.60;;;;;;;27.81;31.48;98859.34;105128;1260;75863;-22
2023/08/25 10:15:35;;;;;;;3.40;1.50;;;;;;;28.18;31.58;98856.33;105036;1260;74098;-22
2023/08/25 10:18:06;;;;;;;3.00;1.60;;;;;;;28.65;30.95;98858.70;105165;1260;62201;-22
2023/08/25 10:20:35;;;;;;;3.80;1.50;;;;;;;29.06;30.56;98855.52;105179;1264;61903;-23
2023/08/25 10:23:08;;;;;;;2.20;1.30;;;;;;;29.35;30.12;98848.04;105292;1260;74616;-22
2023/08/25 10:25:37;;;;;;;3.80;1.40;;;;;;;29.61;29.87;98850.05;105253;1266;75910;-22
2023/08/25 10:28:06;;;;;;;2.30;1.20;;;;;;;29.79;29.40;98846.29;105690;1254;74038;-22
2023/08/25 10:30:34;;;;;;;3.00;1.50;;;;;;;29.51;29.24;98851.08;105481;1254;61928;-22
2023/08/25 10:33:09;;;;;;;2.60;1.50;;;;;;;29.25;30.29;98853.19;105598;1254;61229;-22
2023/08/25 10:35:43;;;;;;;3.30;1.50;;;;;;;29.44;30.23;98854.09;105638;1254;73810;-22
2023/08/25 10:38:17;;;;;;;5.00;1.80;;;;;;;29.73;29.88;98850.35;105556;1255;75110;-22
2023/08/25 10:40:57;;;;;;;2.80;1.60;;;;;;;30.13;29.11;98844.80;105359;1254;74007;-22
2023/08/25 10:43:31;;;;;;;2.00;1.50;;;;;;;30.42;29.09;98840.02;105492;1254;61041;-22
2023/08/25 10:46:01;;;;;;;9.00;1.60;;;;;;;30.65;28.57;98841.39;105601;1262;61204;-22
2023/08/25 10:48:28;;;;;;;1.90;1.20;;;;;;;30.93;27.61;98844.48;105557;1262;65816;-22
2023/08/25 10:51:09;;;;;;;2.50;1.40;;;;;;;31.05;27.52;98839.35;105668;1257;67103;-22
2023/08/25 10:53:49;;;;;;;6.30;1.50;;;;;;;30.78;27.56;98839.80;105547;1261;65725;-22
2023/08/25 10:56:26;;;;;;;2.50;1.70;;;;;;;30.52;27.52;98843.25;105645;1260;61105;-24
2023/08/25 10:59:04;;;;;;;6.60;1.80;;;;;;;29.79;28.52;98843.70;105641;1254;62626;-23
2023/08/25 11:01:38;;;;;;;2.50;1.50;;;;;;;29.69;28.59;98849.73;105529;1254;73419;-24
2023/08/25 11:04:11;;;;;;;1.50;1.00;;;;;;;29.88;28.68;98843.70;105625;1259;76066;-23
2023/08/25 11:06:49;;;;;;;2.70;1.40;;;;;;;30.12;28.26;98839.29;105191;1258;73204;-23
2023/08/25 11:09:20;;;;;;;1.40;1.10;;;;;;;30.03;28.08;98841.27;105366;1254;61682;-23
2023/08/25 11:11:56;;;;;;;2.10;1.20;;;;;;;30.15;27.33;98837.32;105512;1257;61503;-23
2023/08/25 11:14:31;;;;;;;2.10;1.50;;;;;;;30.01;27.54;98835.23;105188;1254;73792;-23
2023/08/25 11:16:58;;;;;;;2.10;1.30;;;;;;;29.38;28.38;98841.30;105444;1254;74808;-23
2023/08/25 11:19:26;;;;;;;3.10;1.60;;;;;;;29.17;28.84;98846.95;105734;1254;73241;-23
2023/08/25 11:21:59;;;;;;;5.60;1.70;;;;;;;29.15;28.93;98846.61;105672;1254;61275;-23
2023/08/25 11:24:27;;;;;;;1.80;1.20;;;;;;;29.08;28.98;98842.73;105382;1254;61161;-23
2023/08/25 11:26:55;;;;;;;2.30;1.30;;;;;;;29.33;28.74;98835.68;105643;1254;74454;-23
2023/08/25 11:29:22;;;;;;;2.70;1.40;;;;;;;29.44;28.85;98830.45;105645;1260;75873;-23
2023/08/25 11:31:50;;;;;;;2.50;1.60;;;;;;;29.26;28.64;98826.23;105391;1256;73862;-23
2023/08/25 11:34:18;;;;;;;2.50;1.50;;;;;;;29.16;28.95;98826.66;105385;1257;61898;-23
2023/08/25 11:36:45;;;;;;;5.50;1.30;;;;;;;29.13;29.08;98830.88;105586;1258;61096;-23
2023/08/25 11:39:18;;;;;;;3.00;1.40;;;;;;;29.21;29.86;98825.96;105369;1262;74138;-23
2023/08/25 11:41:46;;;;;;;2.20;1.40;;;;;;;29.18;29.71;98819.83;105551;1257;74830;-23
2023/08/25 11:44:14;;;;;;;2.70;1.50;;;;;;;28.99;29.75;98823.39;105317;1256;73556;-23
2023/08/25 11:46:42;;;;;;;1.60;1.10;;;;;;;29.09;30.11;98826.93;105563;1257;61543;-23
2023/08/25 11:49:09;;;;;;;2.10;1.40;;;;;;;29.10;29.78;98822.17;105692;1254;61476;-23
2023/08/25 11:51:37;;;;;;;2.10;1.70;;;;;;;29.22;29.79;98823.14;105579;1254;74821;-23
2023/08/25 11:54:04;;;;;;;2.60;1.80;;;;;;;29.33;30.57;98822.60;105677;1254;75727;-23
2023/08/25 11:56:32;;;;;;;1.60;1.30;;;;;;;29.48;29.96;98819.48;105696;1253;72815;-23
2023/08/25 11:59:00;;;;;;;2.20;1.60;;;;;;;29.45;29.29;98820.52;105641;1257;61869;-23